createdAt,value
2017-09-30T00:02:35.309Z,10.60
2017-09-30T00:17:37.281Z,10.59
2017-09-30T00:32:37.110Z,10.55
2017-09-30T00:47:34.695Z,10.55
2017-09-30T01:02:35.426Z,10.46
2017-09-30T01:17:35.349Z,10.28
2017-09-30T01:32:36.231Z,10.25
2017-09-30T01:47:34.946Z,10.13
2017-09-30T02:02:34.680Z,10.05
2017-09-30T02:17:36.553Z,9.95
2017-09-30T02:32:35.046Z,9.96
2017-09-30T02:47:34.990Z,10.16
2017-09-30T03:02:34.927Z,10.31
2017-09-30T03:17:35.918Z,10.48
2017-09-30T03:32:35.292Z,10.55
2017-09-30T03:47:35.771Z,10.64
2017-09-30T04:02:35.141Z,10.63
2017-09-30T04:17:35.167Z,10.58
2017-09-30T04:32:34.534Z,10.53
2017-09-30T04:47:34.712Z,10.51
2017-09-30T05:02:34.443Z,10.56
2017-09-30T05:17:34.398Z,10.87
2017-09-30T05:32:34.836Z,11.26
2017-09-30T05:47:35.753Z,11.79
2017-09-30T06:02:34.749Z,11.93
2017-09-30T06:17:34.653Z,11.99
2017-09-30T06:32:35.072Z,11.84
2017-09-30T06:47:37.033Z,12.50
2017-09-30T07:02:34.971Z,13.57
2017-09-30T07:17:36.890Z,14.31
2017-09-30T07:32:35.328Z,15.17
2017-09-30T07:47:35.262Z,15.56
2017-09-30T08:02:35.206Z,15.29
2017-09-30T08:17:35.215Z,15.55
2017-09-30T08:32:34.625Z,14.67
2017-09-30T08:47:34.575Z,14.49
2017-09-30T09:02:34.592Z,15.05
2017-09-30T09:17:34.516Z,15.38
2017-09-30T09:32:34.912Z,15.30
2017-09-30T09:47:37.219Z,15.17
2017-09-30T10:02:34.882Z,14.87
2017-09-30T10:17:34.782Z,14.81
2017-09-30T10:32:35.269Z,14.50
2017-09-30T10:47:34.658Z,15.70
2017-09-30T11:02:35.056Z,15.15
2017-09-30T11:17:35.091Z,14.66
2017-09-30T11:32:34.522Z,14.35
2017-09-30T11:47:34.427Z,14.35
2017-09-30T12:02:34.366Z,14.41
2017-09-30T12:17:34.345Z,14.22
2017-09-30T12:32:35.821Z,13.96
2017-09-30T12:47:34.728Z,13.73
2017-09-30T13:02:34.671Z,13.63
2017-09-30T13:17:34.602Z,13.64
2017-09-30T13:32:35.048Z,13.65
2017-09-30T13:47:34.982Z,13.35
2017-09-30T14:02:35.739Z,12.96
2017-09-30T14:17:34.918Z,12.69
2017-09-30T14:32:34.829Z,12.45
2017-09-30T14:47:37.034Z,12.38
2017-09-30T15:02:34.693Z,12.21
2017-09-30T15:17:34.682Z,12.06
2017-09-30T15:32:34.606Z,12.08
2017-09-30T15:47:34.071Z,12.19
2017-09-30T16:02:34.537Z,12.12
2017-09-30T16:17:36.200Z,12.03
2017-09-30T16:32:34.949Z,11.93
2017-09-30T16:47:36.863Z,11.76
2017-09-30T17:02:34.774Z,11.68
2017-09-30T17:17:34.766Z,11.51
2017-09-30T17:32:38.593Z,16.60
2017-09-30T17:47:34.671Z,14.69
2017-09-30T18:02:35.143Z,12.86
2017-09-30T18:17:35.126Z,11.99
2017-09-30T18:32:34.277Z,11.69
2017-09-30T18:47:33.946Z,11.13
2017-09-30T19:02:34.411Z,10.88
2017-09-30T19:17:34.399Z,10.78
2017-09-30T19:32:36.793Z,10.68
2017-09-30T19:47:34.784Z,10.57
2017-09-30T20:02:36.715Z,10.57
2017-09-30T20:17:34.689Z,10.48
2017-09-30T20:32:35.098Z,10.46
2017-09-30T20:47:34.993Z,10.50
2017-09-30T21:02:37.009Z,10.59
2017-09-30T21:17:36.968Z,10.46
2017-09-30T21:32:34.365Z,10.51
2017-09-30T21:47:34.323Z,10.52
2017-09-30T22:02:34.235Z,10.53
2017-09-30T22:17:35.184Z,10.37
2017-09-30T22:32:34.649Z,10.31
2017-09-30T22:47:34.659Z,10.32
2017-09-30T23:02:34.538Z,10.67
2017-09-30T23:17:34.508Z,10.93
2017-09-30T23:32:34.905Z,10.87
2017-09-30T23:47:34.877Z,10.89
